sensor_id;sensor_type;location;lat;lon;timestamp;pressure;altitude;pressure_sealevel;temperature;humidity
40838;BME280;29632;49.168;9.848;2023-09-19T00:01:42;96407.19;;;22.53;58.84
40838;BME280;29632;49.168;9.848;2023-09-19T00:04:12;96410.66;;;22.53;58.70
40838;BME280;29632;49.168;9.848;2023-09-19T00:06:39;96411.66;;;22.52;58.83
40838;BME280;29632;49.168;9.848;2023-09-19T00:09:05;96406.13;;;22.54;58.88
40838;BME280;29632;49.168;9.848;2023-09-19T00:11:30;96406.75;;;22.56;58.75
40838;BME280;29632;49.168;9.848;2023-09-19T00:13:57;96408.34;;;22.57;58.52
40838;BME280;29632;49.168;9.848;2023-09-19T00:16:25;96412.84;;;22.56;58.54
40838;BME280;29632;49.168;9.848;2023-09-19T00:18:51;96421.47;;;22.52;58.98
40838;BME280;29632;49.168;9.848;2023-09-19T00:21:18;96416.41;;;22.50;58.79
40838;BME280;29632;49.168;9.848;2023-09-19T00:23:45;96421.94;;;22.49;58.61
40838;BME280;29632;49.168;9.848;2023-09-19T00:26:10;96418.72;;;22.47;58.93
40838;BME280;29632;49.168;9.848;2023-09-19T00:28:36;96410.63;;;22.41;58.80
40838;BME280;29632;49.168;9.848;2023-09-19T00:31:02;96412.25;;;22.42;58.94
40838;BME280;29632;49.168;9.848;2023-09-19T00:33:28;96410.41;;;22.43;58.93
40838;BME280;29632;49.168;9.848;2023-09-19T00:35:56;96408.31;;;22.45;59.15
40838;BME280;29632;49.168;9.848;2023-09-19T00:38:23;96409.38;;;22.44;59.02
40838;BME280;29632;49.168;9.848;2023-09-19T00:40:53;96406.94;;;22.42;59.17
40838;BME280;29632;49.168;9.848;2023-09-19T00:43:20;96411.44;;;22.42;59.20
40838;BME280;29632;49.168;9.848;2023-09-19T00:45:51;96416.41;;;22.38;59.37
40838;BME280;29632;49.168;9.848;2023-09-19T00:48:18;96411.09;;;22.38;59.05
40838;BME280;29632;49.168;9.848;2023-09-19T00:50:46;96412.69;;;22.39;59.41
40838;BME280;29632;49.168;9.848;2023-09-19T00:53:17;96419.06;;;22.38;59.24
40838;BME280;29632;49.168;9.848;2023-09-19T00:55:45;96411.69;;;22.40;59.31
40838;BME280;29632;49.168;9.848;2023-09-19T00:58:11;96411.69;;;22.40;59.38
40838;BME280;29632;49.168;9.848;2023-09-19T01:00:38;96422.28;;;22.40;59.54
40838;BME280;29632;49.168;9.848;2023-09-19T01:03:04;96421.72;;;22.38;59.50
40838;BME280;29632;49.168;9.848;2023-09-19T01:05:33;96415.81;;;22.36;59.68
40838;BME280;29632;49.168;9.848;2023-09-19T01:07:59;96428.25;;;22.36;59.89
40838;BME280;29632;49.168;9.848;2023-09-19T01:10:25;96424.09;;;22.28;60.16
40838;BME280;29632;49.168;9.848;2023-09-19T01:15:59;96422.88;;;22.12;60.55
40838;BME280;29632;49.168;9.848;2023-09-19T01:18:44;96434.06;;;22.14;60.88
40838;BME280;29632;49.168;9.848;2023-09-19T01:25:33;96438.03;;;22.05;61.03
40838;BME280;29632;49.168;9.848;2023-09-19T01:31:20;96435.88;;;22.02;60.93
40838;BME280;29632;49.168;9.848;2023-09-19T01:34:01;96438.38;;;21.97;61.35
40838;BME280;29632;49.168;9.848;2023-09-19T01:36:36;96439.41;;;21.96;61.36
40838;BME280;29632;49.168;9.848;2023-09-19T01:39:07;96437.34;;;21.98;61.69
40838;BME280;29632;49.168;9.848;2023-09-19T01:42:08;96437.91;;;22.00;61.20
40838;BME280;29632;49.168;9.848;2023-09-19T01:44:59;96442.28;;;21.94;61.74
40838;BME280;29632;49.168;9.848;2023-09-19T01:47:34;96442.28;;;21.94;61.85
40838;BME280;29632;49.168;9.848;2023-09-19T01:50:31;96444.34;;;21.92;61.92
40838;BME280;29632;49.168;9.848;2023-09-19T01:53:05;96441.34;;;21.88;61.86
40838;BME280;29632;49.168;9.848;2023-09-19T01:55:39;96449.06;;;21.90;61.54
40838;BME280;29632;49.168;9.848;2023-09-19T02:01:02;96452.06;;;21.94;61.67
40838;BME280;29632;49.168;9.848;2023-09-19T02:03:29;96448.41;;;21.95;61.71
40838;BME280;29632;49.168;9.848;2023-09-19T02:05:56;96451.06;;;21.95;61.73
40838;BME280;29632;49.168;9.848;2023-09-19T02:08:22;96456.34;;;21.95;61.86
40838;BME280;29632;49.168;9.848;2023-09-19T02:10:52;96460.59;;;21.96;61.79
40838;BME280;29632;49.168;9.848;2023-09-19T02:13:22;96455.66;;;21.99;61.93
40838;BME280;29632;49.168;9.848;2023-09-19T02:15:52;96454.66;;;22.00;61.72
40838;BME280;29632;49.168;9.848;2023-09-19T02:18:18;96454.66;;;22.00;61.56
40838;BME280;29632;49.168;9.848;2023-09-19T02:20:44;96458.47;;;22.04;61.56
40838;BME280;29632;49.168;9.848;2023-09-19T02:23:10;96461.34;;;22.03;61.42
40838;BME280;29632;49.168;9.848;2023-09-19T02:25:36;96459.59;;;21.97;61.67
40838;BME280;29632;49.168;9.848;2023-09-19T02:28:03;96467.19;;;21.93;61.93
40838;BME280;29632;49.168;9.848;2023-09-19T02:30:31;96467.63;;;21.90;62.16
40838;BME280;29632;49.168;9.848;2023-09-19T02:32:57;96472.34;;;21.88;62.06
40838;BME280;29632;49.168;9.848;2023-09-19T02:35:23;96468.88;;;21.87;62.04
40838;BME280;29632;49.168;9.848;2023-09-19T02:37:49;96472.94;;;21.90;62.10
40838;BME280;29632;49.168;9.848;2023-09-19T02:40:15;96473.50;;;21.92;61.80
40838;BME280;29632;49.168;9.848;2023-09-19T02:42:55;96475.13;;;21.93;61.78
40838;BME280;29632;49.168;9.848;2023-09-19T02:45:21;96475.94;;;21.94;62.00
40838;BME280;29632;49.168;9.848;2023-09-19T02:47:48;96476.88;;;21.99;61.86
40838;BME280;29632;49.168;9.848;2023-09-19T02:50:14;96486.69;;;21.99;61.59
40838;BME280;29632;49.168;9.848;2023-09-19T02:52:44;96487.13;;;21.96;61.90
40838;BME280;29632;49.168;9.848;2023-09-19T02:55:12;96486.75;;;21.92;62.16
40838;BME280;29632;49.168;9.848;2023-09-19T02:57:40;96480.66;;;21.92;62.09
40838;BME280;29632;49.168;9.848;2023-09-19T03:00:09;96484.91;;;21.93;62.08
40838;BME280;29632;49.168;9.848;2023-09-19T03:02:38;96481.69;;;21.91;62.16
40838;BME280;29632;49.168;9.848;2023-09-19T03:05:07;96490.06;;;21.87;62.25
40838;BME280;29632;49.168;9.848;2023-09-19T03:07:33;96485.81;;;21.86;62.21
40838;BME280;29632;49.168;9.848;2023-09-19T03:10:00;96496.19;;;21.88;62.05
40838;BME280;29632;49.168;9.848;2023-09-19T03:12:26;96494.34;;;21.88;62.23
40838;BME280;29632;49.168;9.848;2023-09-19T03:14:52;96499.44;;;21.90;62.18
40838;BME280;29632;49.168;9.848;2023-09-19T03:17:18;96492.72;;;21.87;62.06
40838;BME280;29632;49.168;9.848;2023-09-19T03:19:45;96496.84;;;21.83;62.41
40838;BME280;29632;49.168;9.848;2023-09-19T03:22:13;96500.78;;;21.81;62.46
40838;BME280;29632;49.168;9.848;2023-09-19T03:24:39;96490.47;;;21.73;62.64
40838;BME280;29632;49.168;9.848;2023-09-19T03:27:05;96495.63;;;21.67;62.63
40838;BME280;29632;49.168;9.848;2023-09-19T03:29:31;96501.13;;;21.66;62.78
40838;BME280;29632;49.168;9.848;2023-09-19T03:31:57;96503.56;;;21.67;62.83
40838;BME280;29632;49.168;9.848;2023-09-19T03:34:22;96494.59;;;21.68;62.70
40838;BME280;29632;49.168;9.848;2023-09-19T03:36:48;96499.66;;;21.70;62.62
40838;BME280;29632;49.168;9.848;2023-09-19T03:39:14;96504.59;;;21.66;62.59
40838;BME280;29632;49.168;9.848;2023-09-19T03:41:43;96517.03;;;21.66;62.74
40838;BME280;29632;49.168;9.848;2023-09-19T03:44:09;96500.97;;;21.61;62.75
40838;BME280;29632;49.168;9.848;2023-09-19T03:46:34;96508.56;;;21.57;62.70
40838;BME280;29632;49.168;9.848;2023-09-19T03:49:01;96511.06;;;21.52;62.76
40838;BME280;29632;49.168;9.848;2023-09-19T03:51:28;96510.03;;;21.53;63.02
40838;BME280;29632;49.168;9.848;2023-09-19T03:53:53;96514.28;;;21.54;62.73
40838;BME280;29632;49.168;9.848;2023-09-19T03:56:19;96507.19;;;21.55;62.95
40838;BME280;29632;49.168;9.848;2023-09-19T03:58:45;96512.00;;;21.58;62.78
40838;BME280;29632;49.168;9.848;2023-09-19T04:01:11;96510.56;;;21.62;62.76
40838;BME280;29632;49.168;9.848;2023-09-19T04:03:38;96512.75;;;21.65;62.59
40838;BME280;29632;49.168;9.848;2023-09-19T04:06:16;96508.88;;;21.67;62.31
40838;BME280;29632;49.168;9.848;2023-09-19T04:08:42;96506.81;;;21.69;62.47
40838;BME280;29632;49.168;9.848;2023-09-19T04:11:10;96512.09;;;21.69;62.22
40838;BME280;29632;49.168;9.848;2023-09-19T04:13:36;96504.94;;;21.70;62.39
40838;BME280;29632;49.168;9.848;2023-09-19T04:16:03;96507.97;;;21.74;62.39
40838;BME280;29632;49.168;9.848;2023-09-19T04:18:35;96509.59;;;21.75;62.22
40838;BME280;29632;49.168;9.848;2023-09-19T04:21:04;96514.47;;;21.78;62.25
40838;BME280;29632;49.168;9.848;2023-09-19T04:23:32;96524.63;;;21.81;61.76
40838;BME280;29632;49.168;9.848;2023-09-19T04:25:58;96525.22;;;21.83;61.93
40838;BME280;29632;49.168;9.848;2023-09-19T04:28:24;96524.69;;;21.74;62.23
40838;BME280;29632;49.168;9.848;2023-09-19T04:30:50;96527.41;;;21.67;62.35
40838;BME280;29632;49.168;9.848;2023-09-19T04:33:16;96530.72;;;21.63;62.51
40838;BME280;29632;49.168;9.848;2023-09-19T04:35:42;96532.13;;;21.65;62.60
40838;BME280;29632;49.168;9.848;2023-09-19T04:38:10;96533.72;;;21.66;62.59
40838;BME280;29632;49.168;9.848;2023-09-19T04:40:37;96537.22;;;21.67;62.63
40838;BME280;29632;49.168;9.848;2023-09-19T04:43:05;96542.28;;;21.68;62.32
40838;BME280;29632;49.168;9.848;2023-09-19T04:45:31;96547.81;;;21.67;62.58
40838;BME280;29632;49.168;9.848;2023-09-19T04:47:57;96546.97;;;21.66;62.82
40838;BME280;29632;49.168;9.848;2023-09-19T04:50:23;96546.53;;;21.69;62.71
40838;BME280;29632;49.168;9.848;2023-09-19T04:52:50;96544.47;;;21.72;62.60
40838;BME280;29632;49.168;9.848;2023-09-19T04:55:17;96551.19;;;21.74;62.58
40838;BME280;29632;49.168;9.848;2023-09-19T04:57:49;96554.81;;;21.80;62.42
40838;BME280;29632;49.168;9.848;2023-09-19T05:00:17;96557.22;;;21.81;62.23
40838;BME280;29632;49.168;9.848;2023-09-19T05:02:44;96556.59;;;21.86;62.26
40838;BME280;29632;49.168;9.848;2023-09-19T05:05:10;96569.59;;;21.87;62.18
40838;BME280;29632;49.168;9.848;2023-09-19T05:07:39;96561.06;;;21.85;62.20
40838;BME280;29632;49.168;9.848;2023-09-19T05:10:05;96572.50;;;21.86;62.33
40838;BME280;29632;49.168;9.848;2023-09-19T05:12:34;96570.63;;;21.86;62.07
40838;BME280;29632;49.168;9.848;2023-09-19T05:15:04;96568.78;;;21.87;62.31
40838;BME280;29632;49.168;9.848;2023-09-19T05:17:30;96572.25;;;21.87;62.07
40838;BME280;29632;49.168;9.848;2023-09-19T05:19:57;96579.97;;;21.89;62.13
40838;BME280;29632;49.168;9.848;2023-09-19T05:22:38;96571.22;;;21.88;62.19
40838;BME280;29632;49.168;9.848;2023-09-19T05:25:07;96574.09;;;21.87;62.36
40838;BME280;29632;49.168;9.848;2023-09-19T05:27:33;96580.44;;;21.86;62.16
40838;BME280;29632;49.168;9.848;2023-09-19T05:29:59;96576.16;;;21.85;62.23
40838;BME280;29632;49.168;9.848;2023-09-19T05:32:25;96584.09;;;21.85;62.16
40838;BME280;29632;49.168;9.848;2023-09-19T05:34:51;96585.97;;;21.84;62.33
40838;BME280;29632;49.168;9.848;2023-09-19T05:37:22;96577.84;;;21.79;62.24
40838;BME280;29632;49.168;9.848;2023-09-19T05:39:49;96585.44;;;21.76;62.12
40838;BME280;29632;49.168;9.848;2023-09-19T05:42:15;96600.59;;;21.68;62.36
40838;BME280;29632;49.168;9.848;2023-09-19T05:44:40;96591.88;;;21.61;62.34
40838;BME280;29632;49.168;9.848;2023-09-19T05:47:06;96596.88;;;21.51;62.56
40838;BME280;29632;49.168;9.848;2023-09-19T05:49:37;96597.91;;;21.43;62.63
40838;BME280;29632;49.168;9.848;2023-09-19T05:52:06;96601.84;;;21.41;62.76
40838;BME280;29632;49.168;9.848;2023-09-19T05:54:32;96603.88;;;21.39;62.78
40838;BME280;29632;49.168;9.848;2023-09-19T05:57:00;96605.34;;;21.35;62.89
40838;BME280;29632;49.168;9.848;2023-09-19T05:59:27;96597.59;;;21.33;63.14
40838;BME280;29632;49.168;9.848;2023-09-19T06:01:53;96610.84;;;21.33;63.10
40838;BME280;29632;49.168;9.848;2023-09-19T06:04:19;96614.06;;;21.35;62.94
40838;BME280;29632;49.168;9.848;2023-09-19T06:06:45;96610.78;;;21.40;62.98
40838;BME280;29632;49.168;9.848;2023-09-19T06:09:14;96623.81;;;21.41;63.10
40838;BME280;29632;49.168;9.848;2023-09-19T06:11:42;96623.81;;;21.41;62.85
40838;BME280;29632;49.168;9.848;2023-09-19T06:14:08;96625.66;;;21.41;63.07
40838;BME280;29632;49.168;9.848;2023-09-19T06:16:36;96633.41;;;21.42;63.03
40838;BME280;29632;49.168;9.848;2023-09-19T06:19:03;96632.16;;;21.45;62.86
40838;BME280;29632;49.168;9.848;2023-09-19T06:21:32;96631.16;;;21.46;62.96
40838;BME280;29632;49.168;9.848;2023-09-19T06:23:57;96640.06;;;21.52;62.96
40838;BME280;29632;49.168;9.848;2023-09-19T06:26:23;96641.47;;;21.54;62.74
40838;BME280;29632;49.168;9.848;2023-09-19T06:28:52;96645.53;;;21.57;62.61
40838;BME280;29632;49.168;9.848;2023-09-19T06:31:18;96636.91;;;21.61;62.51
40838;BME280;29632;49.168;9.848;2023-09-19T06:33:44;96642.00;;;21.63;62.26
40838;BME280;29632;49.168;9.848;2023-09-19T06:36:09;96646.88;;;21.66;62.10
40838;BME280;29632;49.168;9.848;2023-09-19T06:38:36;96648.94;;;21.64;62.38
40838;BME280;29632;49.168;9.848;2023-09-19T06:41:04;96644.44;;;21.64;62.30
40838;BME280;29632;49.168;9.848;2023-09-19T06:43:31;96642.84;;;21.63;62.01
40838;BME280;29632;49.168;9.848;2023-09-19T06:45:58;96650.63;;;21.58;62.31
40838;BME280;29632;49.168;9.848;2023-09-19T06:48:25;96659.00;;;21.55;62.25
40838;BME280;29632;49.168;9.848;2023-09-19T06:50:52;96653.13;;;21.53;62.23
40838;BME280;29632;49.168;9.848;2023-09-19T06:53:18;96659.59;;;21.57;62.12
40838;BME280;29632;49.168;9.848;2023-09-19T06:55:44;96656.94;;;21.57;62.14
40838;BME280;29632;49.168;9.848;2023-09-19T06:58:11;96654.66;;;21.61;62.01
40838;BME280;29632;49.168;9.848;2023-09-19T07:00:36;96668.72;;;21.61;61.98
40838;BME280;29632;49.168;9.848;2023-09-19T07:03:06;96667.69;;;21.62;62.13
40838;BME280;29632;49.168;9.848;2023-09-19T07:05:37;96675.44;;;21.64;61.85
40838;BME280;29632;49.168;9.848;2023-09-19T07:08:05;96675.38;;;21.71;61.92
40838;BME280;29632;49.168;9.848;2023-09-19T07:10:32;96674.72;;;21.75;61.79
40838;BME280;29632;49.168;9.848;2023-09-19T07:13:03;96669.19;;;21.77;61.46
40838;BME280;29632;49.168;9.848;2023-09-19T07:15:32;96667.38;;;21.77;61.45
40838;BME280;29632;49.168;9.848;2023-09-19T07:18:01;96674.44;;;21.83;61.12
40838;BME280;29632;49.168;9.848;2023-09-19T07:20:26;96671.00;;;21.83;60.94
40838;BME280;29632;49.168;9.848;2023-09-19T07:22:54;96670.41;;;21.81;61.25
40838;BME280;29632;49.168;9.848;2023-09-19T07:25:25;96676.72;;;21.80;61.22
40838;BME280;29632;49.168;9.848;2023-09-19T07:27:51;96676.50;;;21.81;61.33
40838;BME280;29632;49.168;9.848;2023-09-19T07:30:17;96677.09;;;21.83;61.24
40838;BME280;29632;49.168;9.848;2023-09-19T07:32:43;96685.44;;;21.87;61.00
40838;BME280;29632;49.168;9.848;2023-09-19T07:35:09;96688.25;;;21.92;61.07
40838;BME280;29632;49.168;9.848;2023-09-19T07:37:35;96702.06;;;21.94;61.12
40838;BME280;29632;49.168;9.848;2023-09-19T07:40:06;96697.72;;;22.00;60.80
40838;BME280;29632;49.168;9.848;2023-09-19T07:42:38;96695.25;;;22.05;60.62
40838;BME280;29632;49.168;9.848;2023-09-19T07:45:07;96705.22;;;22.10;60.79
40838;BME280;29632;49.168;9.848;2023-09-19T07:47:33;96704.72;;;22.19;60.69
40838;BME280;29632;49.168;9.848;2023-09-19T07:50:00;96700.75;;;22.29;60.53
40838;BME280;29632;49.168;9.848;2023-09-19T07:52:29;96699.22;;;22.39;60.39
40838;BME280;29632;49.168;9.848;2023-09-19T07:54:55;96709.31;;;22.49;60.17
40838;BME280;29632;49.168;9.848;2023-09-19T07:57:23;96702.69;;;22.58;60.05
40838;BME280;29632;49.168;9.848;2023-09-19T07:59:48;96704.56;;;22.70;59.54
40838;BME280;29632;49.168;9.848;2023-09-19T08:02:14;96711.88;;;22.74;59.25
40838;BME280;29632;49.168;9.848;2023-09-19T08:04:44;96721.25;;;22.77;58.90
40838;BME280;29632;49.168;9.848;2023-09-19T08:07:14;96716.75;;;22.77;58.88
40838;BME280;29632;49.168;9.848;2023-09-19T08:09:40;96723.09;;;22.76;58.48
40838;BME280;29632;49.168;9.848;2023-09-19T08:12:07;96728.16;;;22.78;58.67
40838;BME280;29632;49.168;9.848;2023-09-19T08:14:36;96734.28;;;22.78;58.38
40838;BME280;29632;49.168;9.848;2023-09-19T08:17:03;96743.88;;;22.79;58.25
40838;BME280;29632;49.168;9.848;2023-09-19T08:19:34;96739.84;;;22.77;58.17
40838;BME280;29632;49.168;9.848;2023-09-19T08:21:59;96741.88;;;22.75;57.72
40838;BME280;29632;49.168;9.848;2023-09-19T08:24:28;96756.63;;;22.71;57.90
40838;BME280;29632;49.168;9.848;2023-09-19T08:26:55;96758.34;;;22.65;57.50
40838;BME280;29632;49.168;9.848;2023-09-19T08:29:23;96761.44;;;22.62;57.40
40838;BME280;29632;49.168;9.848;2023-09-19T08:31:56;96760.47;;;22.56;57.46
40838;BME280;29632;49.168;9.848;2023-09-19T08:34:24;96757.25;;;22.54;57.10
40838;BME280;29632;49.168;9.848;2023-09-19T08:36:54;96758.47;;;22.52;57.08
40838;BME280;29632;49.168;9.848;2023-09-19T08:39:26;96753.38;;;22.50;56.84
40838;BME280;29632;49.168;9.848;2023-09-19T08:42:01;96757.09;;;22.49;56.52
40838;BME280;29632;49.168;9.848;2023-09-19T08:44:28;96759.38;;;22.46;56.62
40838;BME280;29632;49.168;9.848;2023-09-19T08:47:43;96769.63;;;22.42;56.65
40838;BME280;29632;49.168;9.848;2023-09-19T08:50:27;96768.94;;;22.47;56.45
40838;BME280;29632;49.168;9.848;2023-09-19T08:53:01;96770.72;;;22.53;56.24
40838;BME280;29632;49.168;9.848;2023-09-19T08:55:28;96773.75;;;22.56;55.96
40838;BME280;29632;49.168;9.848;2023-09-19T08:58:02;96767.75;;;22.61;55.69
40838;BME280;29632;49.168;9.848;2023-09-19T09:00:29;96774.41;;;22.70;55.57
40838;BME280;29632;49.168;9.848;2023-09-19T09:02:56;96771.91;;;22.75;55.41
40838;BME280;29632;49.168;9.848;2023-09-19T09:05:24;96773.53;;;22.76;55.47
40838;BME280;29632;49.168;9.848;2023-09-19T09:07:50;96779.66;;;22.77;55.19
40838;BME280;29632;49.168;9.848;2023-09-19T09:10:22;96767.56;;;22.81;54.96
40838;BME280;29632;49.168;9.848;2023-09-19T09:12:52;96770.56;;;22.85;55.25
40838;BME280;29632;49.168;9.848;2023-09-19T09:15:22;96764.13;;;22.92;54.89
40838;BME280;29632;49.168;9.848;2023-09-19T09:17:50;96772.19;;;23.04;54.79
40838;BME280;29632;49.168;9.848;2023-09-19T09:20:17;96769.25;;;23.12;54.74
40838;BME280;29632;49.168;9.848;2023-09-19T09:22:54;96776.09;;;23.20;54.30
40838;BME280;29632;49.168;9.848;2023-09-19T09:25:22;96771.72;;;23.26;54.17
40838;BME280;29632;49.168;9.848;2023-09-19T09:28:02;96776.16;;;23.32;53.81
40838;BME280;29632;49.168;9.848;2023-09-19T09:30:36;96777.66;;;23.40;53.81
40838;BME280;29632;49.168;9.848;2023-09-19T09:33:13;96778.28;;;23.42;53.55
40838;BME280;29632;49.168;9.848;2023-09-19T09:35:54;96786.69;;;23.38;53.47
40838;BME280;29632;49.168;9.848;2023-09-19T09:38:28;96772.59;;;23.38;53.62
40838;BME280;29632;49.168;9.848;2023-09-19T09:40:59;96771.91;;;23.43;53.22
40838;BME280;29632;49.168;9.848;2023-09-19T09:43:39;96773.53;;;23.44;53.03
40838;BME280;29632;49.168;9.848;2023-09-19T09:46:20;96777.00;;;23.44;53.18
40838;BME280;29632;49.168;9.848;2023-09-19T09:49:04;96764.06;;;23.48;52.78
40838;BME280;29632;49.168;9.848;2023-09-19T09:51:48;96777.34;;;23.48;52.76
40838;BME280;29632;49.168;9.848;2023-09-19T09:54:24;96767.78;;;23.47;52.29
40838;BME280;29632;49.168;9.848;2023-09-19T09:56:54;96773.09;;;23.47;52.32
40838;BME280;29632;49.168;9.848;2023-09-19T09:59:21;96767.16;;;23.45;53.39
40838;BME280;29632;49.168;9.848;2023-09-19T10:01:49;96761.75;;;23.51;53.04
40838;BME280;29632;49.168;9.848;2023-09-19T10:04:36;96765.84;;;23.66;52.56
40838;BME280;29632;49.168;9.848;2023-09-19T10:07:09;96761.13;;;23.80;52.48
40838;BME280;29632;49.168;9.848;2023-09-19T10:09:46;96756.94;;;23.90;52.19
40838;BME280;29632;49.168;9.848;2023-09-19T10:12:13;96754.84;;;24.04;51.37
40838;BME280;29632;49.168;9.848;2023-09-19T10:14:41;96760.75;;;24.06;50.88
40838;BME280;29632;49.168;9.848;2023-09-19T10:17:10;96762.34;;;24.07;50.95
40838;BME280;29632;49.168;9.848;2023-09-19T10:19:54;96764.91;;;24.14;50.93
40838;BME280;29632;49.168;9.848;2023-09-19T10:22:24;96771.16;;;24.20;51.02
40838;BME280;29632;49.168;9.848;2023-09-19T10:24:53;96783.09;;;24.29;51.13
40838;BME280;29632;49.168;9.848;2023-09-19T10:27:20;96761.91;;;24.34;50.74
40838;BME280;29632;49.168;9.848;2023-09-19T10:29:49;96788.75;;;24.33;50.44
40838;BME280;29632;49.168;9.848;2023-09-19T10:32:19;96782.84;;;24.30;50.65
40838;BME280;29632;49.168;9.848;2023-09-19T10:34:47;96780.19;;;24.30;50.37
40838;BME280;29632;49.168;9.848;2023-09-19T10:37:16;96773.03;;;24.31;50.16
40838;BME280;29632;49.168;9.848;2023-09-19T10:39:46;96782.03;;;24.30;49.79
40838;BME280;29632;49.168;9.848;2023-09-19T10:42:19;96781.22;;;24.29;49.83
40838;BME280;29632;49.168;9.848;2023-09-19T10:44:47;96787.81;;;24.27;49.80
40838;BME280;29632;49.168;9.848;2023-09-19T10:47:17;96777.06;;;24.34;50.06
40838;BME280;29632;49.168;9.848;2023-09-19T10:49:45;96778.81;;;24.40;49.49
40838;BME280;29632;49.168;9.848;2023-09-19T10:52:24;96787.59;;;24.40;49.83
40838;BME280;29632;49.168;9.848;2023-09-19T10:54:54;96780.63;;;24.39;49.91
40838;BME280;29632;49.168;9.848;2023-09-19T10:57:23;96788.88;;;24.38;49.94
40838;BME280;29632;49.168;9.848;2023-09-19T11:00:07;96785.88;;;24.34;49.44
40838;BME280;29632;49.168;9.848;2023-09-19T11:03:23;96794.66;;;24.23;49.55
40838;BME280;29632;49.168;9.848;2023-09-19T11:06:11;96789.19;;;24.18;49.91
40838;BME280;29632;49.168;9.848;2023-09-19T11:11:44;96785.97;;;24.27;49.57
40838;BME280;29632;49.168;9.848;2023-09-19T11:30:34;96760.72;;;24.65;49.24
40838;BME280;29632;49.168;9.848;2023-09-19T11:36:00;96752.72;;;24.89;49.57
40838;BME280;29632;49.168;9.848;2023-09-19T11:49:17;96751.91;;;25.29;47.85
40838;BME280;29632;49.168;9.848;2023-09-19T11:51:46;96739.47;;;25.35;47.94
40838;BME280;29632;49.168;9.848;2023-09-19T11:54:16;96744.66;;;25.41;47.96
40838;BME280;29632;49.168;9.848;2023-09-19T11:56:45;96743.22;;;25.51;47.50
40838;BME280;29632;49.168;9.848;2023-09-19T11:59:11;96745.50;;;25.59;47.68
40838;BME280;29632;49.168;9.848;2023-09-19T12:01:41;96745.13;;;25.67;47.29
40838;BME280;29632;49.168;9.848;2023-09-19T12:04:11;96743.56;;;25.71;47.13
40838;BME280;29632;49.168;9.848;2023-09-19T12:06:37;96749.47;;;25.73;47.03
40838;BME280;29632;49.168;9.848;2023-09-19T12:09:13;96741.38;;;25.68;46.75
40838;BME280;29632;49.168;9.848;2023-09-19T12:11:42;96739.03;;;25.72;46.64
40838;BME280;29632;49.168;9.848;2023-09-19T12:14:20;96739.13;;;25.77;46.91
40838;BME280;29632;49.168;9.848;2023-09-19T12:16:54;96749.56;;;25.78;46.55
40838;BME280;29632;49.168;9.848;2023-09-19T12:19:22;96743.75;;;25.81;46.63
40838;BME280;29632;49.168;9.848;2023-09-19T12:22:00;96734.09;;;25.80;46.32
40838;BME280;29632;49.168;9.848;2023-09-19T12:24:30;96732.91;;;25.88;46.44
40838;BME280;29632;49.168;9.848;2023-09-19T12:27:05;96720.47;;;25.94;46.72
40838;BME280;29632;49.168;9.848;2023-09-19T12:29:47;96726.06;;;26.09;46.30
40838;BME280;29632;49.168;9.848;2023-09-19T12:32:35;96709.38;;;26.19;46.24
40838;BME280;29632;49.168;9.848;2023-09-19T12:35:01;96720.94;;;26.25;46.35
40838;BME280;29632;49.168;9.848;2023-09-19T12:37:33;96718.53;;;26.23;46.33
40838;BME280;29632;49.168;9.848;2023-09-19T12:40:09;96716.03;;;26.16;45.96
40838;BME280;29632;49.168;9.848;2023-09-19T12:42:48;96715.78;;;26.18;46.24
40838;BME280;29632;49.168;9.848;2023-09-19T12:45:15;96719.56;;;26.22;45.71
40838;BME280;29632;49.168;9.848;2023-09-19T12:48:22;96712.66;;;26.26;45.79
40838;BME280;29632;49.168;9.848;2023-09-19T12:53:57;96706.66;;;26.36;45.27
40838;BME280;29632;49.168;9.848;2023-09-19T12:56:23;96709.41;;;26.41;45.19
40838;BME280;29632;49.168;9.848;2023-09-19T12:58:54;96706.25;;;26.44;45.00
40838;BME280;29632;49.168;9.848;2023-09-19T13:01:20;96701.97;;;26.43;44.82
40838;BME280;29632;49.168;9.848;2023-09-19T13:04:18;96701.16;;;26.43;44.64
40838;BME280;29632;49.168;9.848;2023-09-19T13:06:52;96695.50;;;26.39;44.41
40838;BME280;29632;49.168;9.848;2023-09-19T13:09:21;96702.13;;;26.36;44.61
40838;BME280;29632;49.168;9.848;2023-09-19T13:11:47;96705.31;;;26.33;44.22
40838;BME280;29632;49.168;9.848;2023-09-19T13:14:26;96695.94;;;26.31;44.06
40838;BME280;29632;49.168;9.848;2023-09-19T13:19:46;96702.75;;;26.44;44.19
40838;BME280;29632;49.168;9.848;2023-09-19T13:22:44;96703.72;;;26.54;44.38
40838;BME280;29632;49.168;9.848;2023-09-19T13:25:21;96702.00;;;26.65;44.35
40838;BME280;29632;49.168;9.848;2023-09-19T13:27:49;96697.53;;;26.71;44.05
40838;BME280;29632;49.168;9.848;2023-09-19T13:30:20;96685.34;;;26.80;43.80
40838;BME280;29632;49.168;9.848;2023-09-19T13:32:47;96691.59;;;26.91;43.88
40838;BME280;29632;49.168;9.848;2023-09-19T13:35:14;96694.91;;;26.98;43.21
40838;BME280;29632;49.168;9.848;2023-09-19T13:37:41;96701.09;;;27.04;43.03
40838;BME280;29632;49.168;9.848;2023-09-19T13:40:10;96686.41;;;27.06;42.32
40838;BME280;29632;49.168;9.848;2023-09-19T13:42:36;96691.53;;;27.08;42.46
40838;BME280;29632;49.168;9.848;2023-09-19T13:45:06;96695.31;;;27.12;41.90
40838;BME280;29632;49.168;9.848;2023-09-19T13:47:32;96693.69;;;27.11;42.16
40838;BME280;29632;49.168;9.848;2023-09-19T13:49:59;96688.69;;;27.20;42.14
40838;BME280;29632;49.168;9.848;2023-09-19T13:52:26;96692.22;;;27.25;41.95
40838;BME280;29632;49.168;9.848;2023-09-19T13:54:55;96684.84;;;27.33;41.78
40838;BME280;29632;49.168;9.848;2023-09-19T13:57:23;96685.38;;;27.35;41.67
40838;BME280;29632;49.168;9.848;2023-09-19T13:59:49;96698.25;;;27.38;42.07
40838;BME280;29632;49.168;9.848;2023-09-19T14:02:15;96679.78;;;27.36;41.59
40838;BME280;29632;49.168;9.848;2023-09-19T14:04:44;96681.06;;;27.28;41.59
40838;BME280;29632;49.168;9.848;2023-09-19T14:07:10;96681.78;;;27.24;41.43